首页
METAR-TAF:

METAR-TAF

机场 :

新伊斯蘭瑪巴德國際機場

伊斯兰堡, 巴基斯坦

纬度: 33-32-57N, 经度: 072-49-32E, 海拔: 537米

当前天气观测

该预报发布于16分钟前的23:25 UTC
风速6节,风向西
温度 17°C
湿度 94%
气压 1008 hPa
能見度: 5000
少量云层高于4000英尺
轻雾

METAR: OPIS 242325Z 27006KT 5000 BR FEW040 17/16 Q1008 RH95

时间: 04:41 (23:41 UTC)

预报

该预报发布于8小时和26分钟前的15:15 UTC
预报有效从24日的 18点(UTC)到 25日的 24点(UTC)
风速10节,风向东北
能見度: 5000
散云层高于3000英尺
多云层高于8000英尺
几率 30% :
短暂存在
从 24日的 22点(UTC)到 25日的 02点(UTC)
能見度: 2000
少量云层高于4000英尺
散云层高于10000英尺
从 25日的 0330点(UTC)
风速8节,风向西转西北
能見度: 6000
少量云层高于4000英尺
从 25日的 1800点(UTC)
风速10节,风向北转东北
能見度: 4000

TAF: OPIS 241515Z 2418/2524 04010KT 5000 FU SCT030 BKN080 PROB30 TEMPO 2422/2502 2000 FU FEW040 SCT100 FM250330 30008KT 6000 FEW040 FM251800 03010KT 4000 HZ NSC

超过4000个机场的气象观测和天气预报(METAR&TAF报告)。

可查询的气象台以黄色和红色小点在地图上表示。

将鼠标移到小点上方,可查看气象台名称。

然后点击查看天气观测和预报。

如需切换地图:点击带黑十字的绿色按钮放大地图;点击带横线的绿色按钮缩小地图;或者点击绿色箭头查看邻近地区的地图。


METAR-TAF: